Terminal Aerodrome Forecast
Issued by NWS

Home | Current Version | Previous Version | Text Only | Print | Product List | Glossary On
Versions: 1 2 3 4 5 6 7 8 9 10 11 12 13 14 15 16 17
000
FTUS43 KIWX 011100
TAFSBN
TAF
KSBN 011140Z 0112/0212 09008KT 2SM -SN OVC005
      TEMPO 0112/0115 3/4SM -SN OVC003
     FM011500 08013G21KT 1/4SM SN FZFG VV004
     FM012100 05016G26KT 1/2SM SN BLSN VV003
     FM020700 01016G24KT 3SM -SN BLSN OVC015=

USA.gov is the U.S. government's official web portal to all federal, state and local government web resources and services.